Time;durP1;ratioP1;P1;durP2;ratioP2;P2;SDS_P1;SDS_P2;PMS_P1;PMS_P2;Temp;Humidity;BMP_temperature;BMP_pressure;BME280_temperature;BME280_humidity;BME280_pressure;Samples;Min_cycle;Max_cycle;Signal;HPM_P1;HPM_P2
2023/01/29 00:01:04;;;;;;;7.72;6.50;;;;;;;3.19;78.73;99195.41;4139225;28;20781;-82
2023/01/29 00:03:07;;;;;;;6.30;5.70;;;;;;;3.19;78.01;99187.69;4156815;28;20212;-82
2023/01/29 00:05:10;;;;;;;6.35;5.65;;;;;;;3.20;77.84;99190.22;4157750;28;20206;-82
2023/01/29 00:07:29;;;;;;;7.03;6.15;;;;;;;3.19;77.54;99191.13;4169638;28;20198;-82
2023/01/29 00:09:32;;;;;;;10.60;7.65;;;;;;;3.20;77.92;99189.38;4172056;28;20297;-82
2023/01/29 00:11:35;;;;;;;9.90;7.35;;;;;;;3.19;77.58;99192.84;4157537;28;20206;-82
2023/01/29 00:13:38;;;;;;;19.20;11.88;;;;;;;3.17;77.49;99189.44;4155406;28;20262;-81
2023/01/29 00:15:41;;;;;;;35.25;18.65;;;;;;;3.16;77.38;99192.91;4165619;28;20261;-82
2023/01/29 00:17:45;;;;;;;11.25;7.50;;;;;;;3.16;78.00;99187.75;4158134;28;20265;-82
2023/01/29 00:19:48;;;;;;;10.00;7.40;;;;;;;3.14;77.03;99192.94;4175029;28;20209;-82
2023/01/29 00:21:52;;;;;;;12.55;9.55;;;;;;;3.13;77.20;99192.97;4140973;28;20342;-82
2023/01/29 00:23:55;;;;;;;15.50;10.98;;;;;;;3.13;77.67;99193.84;4154532;28;20199;-82
2023/01/29 00:25:59;;;;;;;9.43;7.30;;;;;;;3.13;77.83;99182.66;4169413;28;20292;-82
2023/01/29 00:28:03;;;;;;;9.77;7.13;;;;;;;3.13;78.45;99185.22;4171959;28;20194;-82
2023/01/29 00:30:11;;;;;;;8.55;7.38;;;;;;;3.12;78.49;99181.00;4137799;28;20298;-82
2023/01/29 00:32:15;;;;;;;8.35;6.25;;;;;;;3.07;77.69;99182.81;4143302;28;20583;-82
2023/01/29 00:34:20;;;;;;;8.30;6.80;;;;;;;3.07;78.39;99182.81;4160568;28;20207;-82
2023/01/29 00:36:23;;;;;;;7.80;7.00;;;;;;;3.11;78.60;99182.72;4171515;28;20807;-82
2023/01/29 00:38:27;;;;;;;10.27;7.82;;;;;;;3.17;78.59;99181.72;4156263;28;20667;-82
2023/01/29 00:44:56;;;;;;;12.80;9.20;;;;;;;3.16;77.85;99180.88;4167764;28;20260;-82
2023/01/29 00:45:17;;;;;;;18.50;12.27;;;;;;;3.17;78.03;99186.88;4156370;28;20213;-82
2023/01/29 00:47:35;;;;;;;12.60;9.88;;;;;;;3.15;78.40;99184.34;4170869;28;20296;-82
2023/01/29 00:49:40;;;;;;;12.10;9.30;;;;;;;3.16;78.50;99185.16;4156199;28;20278;-81
2023/01/29 00:51:43;;;;;;;9.15;7.20;;;;;;;3.17;78.85;99181.72;4158284;28;20207;-82
2023/01/29 00:53:46;;;;;;;11.27;7.13;;;;;;;3.15;78.29;99183.50;4157799;28;20203;-82
2023/01/29 00:55:49;;;;;;;5.95;5.35;;;;;;;3.16;78.37;99185.16;4139482;28;20264;-82
2023/01/29 00:57:52;;;;;;;7.93;6.68;;;;;;;3.10;77.54;99188.75;4139810;28;20262;-82
2023/01/29 00:59:55;;;;;;;12.95;8.45;;;;;;;3.05;77.29;99184.56;4156418;28;20257;-82
2023/01/29 01:04:18;;;;;;;10.48;7.60;;;;;;;3.04;78.48;99178.56;4167845;28;20203;-82
2023/01/29 01:06:23;;;;;;;7.13;5.60;;;;;;;3.03;78.90;99173.44;4172371;28;20632;-82
2023/01/29 01:10:46;;;;;;;6.85;5.82;;;;;;;3.00;78.79;99176.09;4141054;28;20256;-82
2023/01/29 01:12:55;;;;;;;8.55;6.38;;;;;;;3.01;78.32;99172.66;4151498;28;20670;-82
2023/01/29 01:14:58;;;;;;;8.02;6.65;;;;;;;3.01;78.68;99172.66;4169385;28;20656;-82
2023/01/29 01:17:01;;;;;;;8.93;6.88;;;;;;;3.04;79.37;99170.84;4152713;28;20263;-82
2023/01/29 01:19:04;;;;;;;7.82;7.03;;;;;;;3.07;78.69;99172.53;4140533;28;20204;-82
2023/01/29 01:21:07;;;;;;;9.95;7.85;;;;;;;3.06;78.68;99174.22;4158490;28;20234;-82
2023/01/29 01:23:12;;;;;;;9.15;6.90;;;;;;;3.10;79.34;99167.31;4156698;28;20905;-82
2023/01/29 01:25:16;;;;;;;9.95;6.93;;;;;;;3.10;79.48;99178.44;4143586;28;20215;-82
2023/01/29 01:27:19;;;;;;;7.07;6.22;;;;;;;3.11;79.00;99174.13;4158095;28;20207;-82
2023/01/29 01:29:22;;;;;;;6.90;6.07;;;;;;;3.10;80.16;99173.28;4153711;28;20623;-82
2023/01/29 01:31:25;;;;;;;8.43;6.32;;;;;;;3.10;80.33;99175.88;4150579;28;21289;-82
2023/01/29 01:33:28;;;;;;;7.43;6.55;;;;;;;3.10;80.04;99178.44;4153210;28;20199;-82
2023/01/29 01:35:31;;;;;;;7.55;6.45;;;;;;;3.12;80.83;99181.00;4143449;28;20219;-82
2023/01/29 01:37:36;;;;;;;6.53;5.93;;;;;;;3.13;80.28;99177.50;4154910;28;20753;-82
2023/01/29 01:39:40;;;;;;;7.05;6.07;;;;;;;3.13;80.37;99182.66;4155122;28;20206;-82
2023/01/29 01:41:43;;;;;;;7.28;6.40;;;;;;;3.12;80.08;99176.66;4156476;28;20245;-82
2023/01/29 01:43:51;;;;;;;7.55;5.68;;;;;;;3.11;80.40;99164.69;4172720;28;20272;-82
2023/01/29 01:45:55;;;;;;;7.45;6.45;;;;;;;3.12;80.19;99161.22;4154119;28;20207;-82
2023/01/29 01:48:01;;;;;;;7.40;6.50;;;;;;;3.12;80.71;99170.69;4138018;28;20668;-82
2023/01/29 01:50:08;;;;;;;16.48;8.25;;;;;;;3.12;79.66;99170.69;4170696;28;20751;-82
2023/01/29 01:52:12;;;;;;;9.95;7.22;;;;;;;3.10;79.26;99167.31;4170296;28;20203;-82
2023/01/29 01:54:19;;;;;;;14.00;9.13;;;;;;;3.08;79.39;99166.47;4137530;28;20211;-82
2023/01/29 01:56:27;;;;;;;16.25;8.80;;;;;;;3.03;79.17;99158.00;4155353;28;20260;-82
2023/01/29 01:58:33;;;;;;;15.18;10.63;;;;;;;3.02;79.10;99161.44;4137947;28;20207;-82
2023/01/29 02:00:37;;;;;;;12.77;8.05;;;;;;;3.01;79.78;99164.91;4158554;28;20695;-82
2023/01/29 02:09:51;;;;;;;10.90;6.88;;;;;;;2.98;79.85;99170.13;4153516;28;20234;-82
2023/01/29 02:11:56;;;;;;;15.38;9.43;;;;;;;3.02;79.82;99174.31;4174759;28;20209;-82
2023/01/29 02:13:59;;;;;;;11.00;9.38;;;;;;;3.01;79.72;99168.34;4137513;28;20774;-82
2023/01/29 02:16:03;;;;;;;10.18;8.13;;;;;;;3.01;79.82;99170.91;4157239;28;20773;-82
2023/01/29 02:18:09;;;;;;;8.57;7.68;;;;;;;3.02;79.91;99170.03;4137795;28;20234;-82
2023/01/29 02:20:19;;;;;;;7.15;6.40;;;;;;;3.03;80.77;99165.72;4169173;28;20214;-82
2023/01/29 02:22:42;;;;;;;7.13;5.78;;;;;;;3.04;80.33;99172.59;4173840;28;20205;-81
2023/01/29 02:25:21;;;;;;;7.97;7.13;;;;;;;3.03;80.79;99171.72;4154167;28;20210;-82
2023/01/29 02:27:34;;;;;;;12.95;8.60;;;;;;;2.98;80.07;99175.28;4147365;28;20234;-82
2023/01/29 02:29:49;;;;;;;14.55;8.40;;;;;;;3.02;79.78;99172.63;4161050;28;20206;-81
2023/01/29 02:31:59;;;;;;;16.73;8.70;;;;;;;2.99;80.04;99174.38;4140989;28;20348;-82
2023/01/29 02:34:10;;;;;;;10.88;7.05;;;;;;;3.01;79.77;99172.66;4174140;28;20221;-82
2023/01/29 02:36:19;;;;;;;13.45;7.65;;;;;;;3.01;80.47;99173.47;4140032;28;20231;-81
2023/01/29 02:38:28;;;;;;;9.85;7.30;;;;;;;3.00;79.41;99174.34;4159833;28;20214;-81
2023/01/29 02:40:37;;;;;;;10.65;7.50;;;;;;;2.98;79.75;99168.41;4154719;28;20200;-82
2023/01/29 02:42:46;;;;;;;7.80;6.57;;;;;;;2.96;78.93;99170.16;4157254;28;20570;-82
2023/01/29 02:44:56;;;;;;;12.45;7.82;;;;;;;2.98;79.01;99172.72;4141789;28;20226;-82
2023/01/29 02:47:02;;;;;;;8.00;6.90;;;;;;;2.98;79.81;99167.56;4159048;28;20222;-82
2023/01/29 02:49:13;;;;;;;6.95;6.25;;;;;;;2.99;79.13;99171.81;4143591;28;20208;-81
2023/01/29 02:51:19;;;;;;;9.60;8.25;;;;;;;2.97;79.07;99166.69;4155729;28;20586;-82
2023/01/29 02:53:27;;;;;;;10.07;7.25;;;;;;;2.97;79.88;99165.84;4172992;28;20206;-81
2023/01/29 02:55:35;;;;;;;10.32;7.35;;;;;;;2.98;79.78;99157.25;4155832;28;20214;-82
2023/01/29 02:57:41;;;;;;;8.85;6.65;;;;;;;2.97;79.56;99156.38;4141562;28;20281;-81
2023/01/29 02:59:49;;;;;;;8.73;6.82;;;;;;;2.98;80.10;99158.09;4158407;28;20198;-82
2023/01/29 03:01:58;;;;;;;6.85;5.82;;;;;;;3.01;79.91;99155.44;4170642;28;20209;-82
2023/01/29 03:04:06;;;;;;;7.80;6.32;;;;;;;3.00;81.30;99156.31;4153306;28;20691;-82
2023/01/29 03:06:19;;;;;;;9.18;6.22;;;;;;;3.04;80.54;99167.44;4169534;28;20198;-82
2023/01/29 03:08:35;;;;;;;7.10;6.10;;;;;;;3.04;79.69;99170.84;4141701;28;20346;-81
2023/01/29 03:10:41;;;;;;;7.25;6.55;;;;;;;3.05;80.02;99175.13;4173875;28;20694;-82
2023/01/29 03:12:46;;;;;;;8.57;6.35;;;;;;;3.04;80.29;99159.69;4160917;28;20832;-82
2023/01/29 03:17:12;;;;;;;7.63;6.82;;;;;;;3.02;79.35;99161.44;4153374;28;20250;-82
2023/01/29 03:19:21;;;;;;;8.13;6.32;;;;;;;3.02;79.57;99164.03;4142787;28;20215;-82
2023/01/29 03:33:42;;;;;;;7.32;6.18;;;;;;;3.06;79.71;99155.34;4159387;28;20198;-82
2023/01/29 03:35:50;;;;;;;7.15;5.75;;;;;;;3.04;80.63;99151.97;4139102;28;20211;-82
2023/01/29 03:37:55;;;;;;;6.88;6.05;;;;;;;3.02;80.19;99159.75;4135948;28;20725;-81
2023/01/29 03:39:59;;;;;;;6.65;5.68;;;;;;;3.02;79.90;99158.88;4155958;28;20203;-81
2023/01/29 03:42:08;;;;;;;6.20;5.60;;;;;;;3.00;80.19;99166.63;4152326;28;20218;-82
2023/01/29 03:44:15;;;;;;;7.40;6.35;;;;;;;3.00;79.80;99158.91;4154871;28;21069;-82
2023/01/29 03:46:22;;;;;;;7.13;6.43;;;;;;;3.02;80.13;99169.16;4151809;28;20630;-82
2023/01/29 03:48:32;;;;;;;6.95;6.00;;;;;;;3.00;79.70;99166.63;4151245;28;20231;-82
2023/01/29 03:50:40;;;;;;;11.07;6.57;;;;;;;3.01;79.55;99162.34;4155740;28;20203;-81
2023/01/29 03:52:47;;;;;;;7.40;5.80;;;;;;;3.03;79.32;99163.97;4169165;28;20765;-82
2023/01/29 03:54:57;;;;;;;6.53;5.90;;;;;;;3.02;78.80;99164.03;4153627;28;20199;-82
2023/01/29 03:57:04;;;;;;;6.28;5.65;;;;;;;2.97;79.20;99169.25;4158576;28;20222;-82
2023/01/29 03:59:23;;;;;;;8.90;5.60;;;;;;;2.93;79.28;99165.09;4156791;28;20317;-81
2023/01/29 04:01:42;;;;;;;6.35;4.90;;;;;;;2.93;79.45;99169.38;4156523;28;20202;-81
2023/01/29 04:03:49;;;;;;;6.68;5.85;;;;;;;2.91;79.19;99163.41;4155964;28;20207;-82
2023/01/29 04:06:08;;;;;;;7.47;5.90;;;;;;;2.88;79.85;99166.03;4153006;28;20245;-82
2023/01/29 04:08:20;;;;;;;6.70;5.82;;;;;;;2.88;79.86;99163.47;4155668;28;20203;-82
2023/01/29 04:10:27;;;;;;;5.90;5.28;;;;;;;2.88;79.46;99160.91;4151617;28;20272;-82
2023/01/29 04:12:35;;;;;;;6.75;5.95;;;;;;;2.86;80.14;99162.66;4167317;28;20213;-82
2023/01/29 04:14:39;;;;;;;7.82;5.90;;;;;;;2.86;79.93;99162.66;4167376;28;20226;-81
2023/01/29 04:16:46;;;;;;;5.68;5.07;;;;;;;2.86;80.15;99166.06;4171712;28;20252;-82
2023/01/29 04:19:06;;;;;;;6.70;5.35;;;;;;;2.87;80.30;99169.50;4152765;28;20218;-82
2023/01/29 04:21:15;;;;;;;6.65;5.93;;;;;;;2.87;80.48;99165.22;4170424;28;20564;-82
2023/01/29 04:23:21;;;;;;;7.18;5.55;;;;;;;2.88;79.99;99169.47;4158604;28;20207;-82
2023/01/29 04:25:27;;;;;;;6.60;5.90;;;;;;;2.89;79.86;99172.91;4149348;28;20298;-81
2023/01/29 04:27:41;;;;;;;7.45;6.15;;;;;;;2.89;80.20;99167.75;4155493;28;20199;-82
2023/01/29 04:29:58;;;;;;;7.15;5.82;;;;;;;2.89;80.39;99172.91;4171267;28;20207;-82
2023/01/29 04:32:09;;;;;;;10.25;6.00;;;;;;;2.91;79.62;99168.56;4164704;28;20214;-81
2023/01/29 04:34:18;;;;;;;7.00;5.50;;;;;;;2.93;79.66;99165.09;4154103;28;20296;-82
2023/01/29 04:36:30;;;;;;;6.57;5.88;;;;;;;2.96;79.11;99169.31;4156389;28;20265;-82
2023/01/29 04:38:42;;;;;;;8.00;5.82;;;;;;;2.95;79.92;99162.47;4153975;28;20227;-82
2023/01/29 04:40:51;;;;;;;7.57;6.18;;;;;;;2.94;79.70;99166.75;4155617;28;20206;-82
2023/01/29 04:42:59;;;;;;;7.53;6.65;;;;;;;2.97;80.52;99171.00;4168984;28;20228;-82
2023/01/29 04:45:06;;;;;;;6.38;5.40;;;;;;;2.97;80.12;99176.16;4169545;28;20220;-82
2023/01/29 04:47:18;;;;;;;8.50;6.38;;;;;;;2.94;79.87;99171.06;4154969;28;20252;-82
2023/01/29 04:49:29;;;;;;;6.35;5.75;;;;;;;2.94;80.39;99176.22;4155046;28;20221;-82
2023/01/29 04:51:43;;;;;;;7.38;6.28;;;;;;;2.93;80.31;99177.97;4169257;28;20226;-82
2023/01/29 04:53:51;;;;;;;6.93;5.80;;;;;;;2.95;80.66;99172.78;4154566;28;20207;-82
2023/01/29 04:55:58;;;;;;;6.72;6.03;;;;;;;2.97;79.70;99184.72;4169808;28;20205;-82
2023/01/29 04:58:05;;;;;;;7.38;5.75;;;;;;;2.99;79.25;99187.28;4156961;28;20215;-82
2023/01/29 05:00:12;;;;;;;6.32;5.70;;;;;;;2.98;78.94;99188.16;4151977;28;20642;-82
2023/01/29 05:02:17;;;;;;;5.57;5.00;;;;;;;2.98;78.98;99175.28;4171208;28;20210;-82
2023/01/29 05:04:21;;;;;;;6.57;5.53;;;;;;;2.98;79.23;99177.88;4166167;28;20211;-82
2023/01/29 05:06:24;;;;;;;7.22;5.70;;;;;;;2.95;80.04;99183.91;4137901;28;20208;-82
2023/01/29 05:08:29;;;;;;;7.22;5.50;;;;;;;2.93;80.89;99177.97;4150592;28;20289;-82
2023/01/29 05:10:33;;;;;;;6.95;5.53;;;;;;;2.92;80.72;99173.69;4172436;28;20572;-82
2023/01/29 05:12:37;;;;;;;6.85;5.80;;;;;;;2.89;80.67;99166.00;4136958;28;20211;-82
2023/01/29 05:14:42;;;;;;;6.78;5.85;;;;;;;2.89;80.51;99172.91;4153477;28;20223;-82
2023/01/29 05:16:47;;;;;;;6.78;5.88;;;;;;;2.91;80.54;99171.13;4140783;28;20242;-82
2023/01/29 05:18:51;;;;;;;6.10;5.47;;;;;;;2.91;80.39;99164.25;4137724;28;20691;-82
2023/01/29 05:20:55;;;;;;;6.28;5.68;;;;;;;2.90;80.18;99169.44;4170980;28;20224;-82
2023/01/29 05:23:01;;;;;;;6.55;5.53;;;;;;;2.93;80.10;99169.38;4168590;28;20637;-82
2023/01/29 05:25:10;;;;;;;7.07;5.97;;;;;;;2.90;79.25;99175.44;4150578;28;20297;-82
2023/01/29 05:29:40;;;;;;;6.97;5.78;;;;;;;2.87;80.58;99183.25;4141123;28;20215;-82
2023/01/29 05:31:43;;;;;;;7.70;6.90;;;;;;;2.86;80.83;99178.94;4156483;28;20682;-81
2023/01/29 05:33:47;;;;;;;6.88;6.10;;;;;;;2.86;81.05;99173.81;4167883;28;20609;-81
2023/01/29 05:35:50;;;;;;;7.60;6.25;;;;;;;2.88;80.75;99177.19;4155260;28;20203;-82
2023/01/29 05:37:54;;;;;;;6.88;5.85;;;;;;;2.88;80.84;99176.34;4133253;28;20309;-82
2023/01/29 05:39:57;;;;;;;7.45;5.55;;;;;;;2.86;81.18;99167.81;4171829;28;20208;-81
2023/01/29 05:42:02;;;;;;;7.50;6.05;;;;;;;2.84;80.59;99162.69;4171986;28;20211;-82
2023/01/29 05:44:05;;;;;;;7.20;6.13;;;;;;;2.80;80.64;99160.22;4154575;28;20200;-81
2023/01/29 05:46:09;;;;;;;6.78;5.57;;;;;;;2.79;80.80;99145.63;4139518;28;20203;-82
2023/01/29 05:48:12;;;;;;;7.38;5.88;;;;;;;2.80;80.80;99142.19;4168437;28;20302;-81
2023/01/29 05:50:15;;;;;;;7.65;6.03;;;;;;;2.78;81.07;99138.78;4169566;28;20201;-81
2023/01/29 05:52:19;;;;;;;6.30;5.40;;;;;;;2.74;80.86;99128.56;4166637;28;20233;-81
2023/01/29 05:54:22;;;;;;;6.80;5.82;;;;;;;2.73;80.63;99126.91;4169592;28;20311;-81
2023/01/29 05:56:28;;;;;;;6.70;5.70;;;;;;;2.73;79.96;99121.75;4172038;28;20206;-81
2023/01/29 05:58:32;;;;;;;6.93;5.80;;;;;;;2.73;79.87;99121.75;4177755;28;20248;-82
2023/01/29 06:00:35;;;;;;;9.45;5.40;;;;;;;2.70;79.71;99125.22;4177257;28;20260;-82
2023/01/29 06:02:38;;;;;;;7.00;5.90;;;;;;;2.71;79.63;99134.66;4144069;28;20207;-82
2023/01/29 06:04:41;;;;;;;8.45;5.35;;;;;;;2.72;79.59;99133.78;4157529;28;20724;-82
2023/01/29 06:06:44;;;;;;;5.93;5.10;;;;;;;2.71;80.25;99137.22;4157961;28;20210;-81
2023/01/29 06:08:48;;;;;;;6.85;5.50;;;;;;;2.72;80.29;99133.78;4173543;28;20228;-81
2023/01/29 06:10:51;;;;;;;6.25;5.65;;;;;;;2.72;80.91;99128.63;4156188;28;20210;-82
2023/01/29 06:12:54;;;;;;;7.38;5.88;;;;;;;2.72;81.00;99132.91;4172600;28;20285;-81
2023/01/29 06:14:58;;;;;;;6.97;6.00;;;;;;;2.73;80.81;99145.75;4155003;28;20207;-82
2023/01/29 06:17:01;;;;;;;8.20;6.07;;;;;;;2.77;81.03;99142.25;4171214;28;20301;-82
2023/01/29 06:19:04;;;;;;;6.70;6.00;;;;;;;2.78;80.24;99137.94;4161362;28;20718;-81
2023/01/29 06:21:09;;;;;;;7.15;6.00;;;;;;;2.78;80.92;99143.94;4168552;28;20217;-82
2023/01/29 06:23:15;;;;;;;6.90;5.63;;;;;;;2.77;80.52;99142.25;4172311;28;20642;-82
2023/01/29 06:25:18;;;;;;;6.25;5.53;;;;;;;2.75;80.76;99143.16;4154176;28;20207;-82
2023/01/29 06:27:21;;;;;;;6.45;5.82;;;;;;;2.75;80.87;99146.56;4153232;28;20203;-81
2023/01/29 06:29:24;;;;;;;6.60;5.65;;;;;;;2.77;81.37;99146.53;4161475;28;20199;-81
2023/01/29 06:31:28;;;;;;;6.68;5.97;;;;;;;2.73;81.05;99140.63;4168937;28;20211;-82
2023/01/29 06:33:41;;;;;;;7.00;5.38;;;;;;;2.73;81.43;99140.63;4158002;28;20242;-81
2023/01/29 06:35:44;;;;;;;7.03;6.05;;;;;;;2.78;81.46;99146.50;4172303;28;20202;-81
2023/01/29 06:37:49;;;;;;;6.35;5.63;;;;;;;2.80;80.67;99148.19;4158005;28;20203;-82
2023/01/29 06:39:52;;;;;;;6.68;5.07;;;;;;;2.79;81.24;99145.63;4144352;28;20219;-82
2023/01/29 06:41:55;;;;;;;6.40;5.80;;;;;;;2.79;81.08;99150.78;4169827;28;20671;-82
2023/01/29 06:43:58;;;;;;;6.18;5.45;;;;;;;2.78;81.38;99151.66;4156528;28;20202;-81
2023/01/29 06:46:01;;;;;;;7.95;5.60;;;;;;;2.78;80.82;99150.81;4171038;28;20575;-81
2023/01/29 06:48:06;;;;;;;7.32;5.65;;;;;;;2.78;80.81;99154.22;4171676;28;20202;-81
2023/01/29 06:50:10;;;;;;;6.03;5.15;;;;;;;2.78;80.96;99151.66;4142918;28;20220;-81
2023/01/29 06:52:13;;;;;;;7.80;6.22;;;;;;;2.79;80.03;99161.09;4143235;28;20235;-80
2023/01/29 06:54:16;;;;;;;5.95;5.00;;;;;;;2.72;78.79;99159.53;4138863;28;20216;-81
2023/01/29 06:56:19;;;;;;;6.32;5.28;;;;;;;2.75;78.77;99159.44;4157459;28;20682;-81
2023/01/29 06:58:22;;;;;;;6.65;5.50;;;;;;;2.76;78.54;99156.00;4173139;28;20214;-81
2023/01/29 07:00:25;;;;;;;8.60;5.93;;;;;;;2.80;77.83;99165.38;4141884;28;20219;-80
2023/01/29 07:02:28;;;;;;;7.28;6.35;;;;;;;2.70;77.12;99168.16;4153444;28;20321;-81
2023/01/29 07:04:34;;;;;;;5.90;5.30;;;;;;;2.50;76.23;99160.81;4156920;28;20248;-80
2023/01/29 07:06:37;;;;;;;7.30;5.53;;;;;;;2.55;76.42;99153.84;4138752;28;20213;-81
2023/01/29 07:08:40;;;;;;;7.60;5.97;;;;;;;2.62;77.08;99157.19;4162158;28;20644;-80
2023/01/29 07:10:43;;;;;;;7.38;6.35;;;;;;;2.64;77.40;99153.66;4157085;28;20225;-81
2023/01/29 07:12:47;;;;;;;8.55;6.53;;;;;;;2.68;77.91;99163.03;4140468;28;20200;-80
2023/01/29 07:14:49;;;;;;;8.45;6.65;;;;;;;2.67;77.68;99166.47;4175047;28;20237;-81
2023/01/29 07:16:52;;;;;;;8.02;7.00;;;;;;;2.69;78.05;99169.91;4156602;28;20218;-81
2023/01/29 07:18:55;;;;;;;9.65;7.70;;;;;;;2.69;78.25;99164.75;4173476;28;20245;-81
2023/01/29 07:21:07;;;;;;;8.18;6.95;;;;;;;2.72;78.90;99169.84;4176031;28;20238;-81
2023/01/29 07:23:11;;;;;;;7.70;6.65;;;;;;;2.77;79.04;99177.44;4173066;28;20698;-81
2023/01/29 07:25:15;;;;;;;10.43;7.03;;;;;;;2.75;79.43;99180.03;4156052;28;20942;-80
2023/01/29 07:27:18;;;;;;;7.55;6.75;;;;;;;2.76;79.45;99179.16;4170369;28;20223;-81
2023/01/29 07:29:21;;;;;;;7.60;6.80;;;;;;;2.78;80.05;99184.28;4155013;28;20207;-81
2023/01/29 07:31:24;;;;;;;9.18;7.45;;;;;;;2.76;79.64;99179.16;4137906;28;20212;-81
2023/01/29 07:33:27;;;;;;;7.72;6.90;;;;;;;2.79;79.79;99183.44;4150042;28;20325;-81
2023/01/29 07:35:30;;;;;;;9.48;7.40;;;;;;;2.83;79.71;99188.47;4170757;28;20210;-82
2023/01/29 07:37:34;;;;;;;10.02;8.13;;;;;;;2.84;79.56;99190.16;4152825;28;21223;-84
2023/01/29 07:39:38;;;;;;;8.73;7.55;;;;;;;2.83;79.10;99183.34;4154715;28;20718;-82
2023/01/29 07:41:40;;;;;;;10.60;8.35;;;;;;;2.83;79.28;99191.06;4169385;28;20363;-81
2023/01/29 07:43:50;;;;;;;10.73;8.10;;;;;;;2.84;78.89;99196.19;4149789;28;20215;-81
2023/01/29 07:45:53;;;;;;;11.80;9.27;;;;;;;2.85;79.60;99191.88;4145533;28;20207;-83
2023/01/29 07:47:57;;;;;;;13.60;9.85;;;;;;;2.87;79.45;99193.53;4156838;28;20198;-83
2023/01/29 07:50:00;;;;;;;10.38;8.68;;;;;;;2.88;79.17;99194.38;4159323;28;20203;-83
2023/01/29 07:52:03;;;;;;;9.57;8.50;;;;;;;2.88;79.22;99197.78;4157130;28;20210;-85
2023/01/29 07:54:08;;;;;;;11.25;9.60;;;;;;;2.95;79.02;99204.53;4155029;28;20750;-85
2023/01/29 07:56:11;;;;;;;10.00;9.00;;;;;;;2.98;78.96;99201.88;4157540;28;20253;-83
2023/01/29 07:58:14;;;;;;;8.25;7.40;;;;;;;3.03;79.15;99204.38;4177370;28;20206;-84
2023/01/29 08:00:18;;;;;;;9.15;7.07;;;;;;;3.08;78.67;99205.09;4155008;28;20235;-86
2023/01/29 08:02:21;;;;;;;9.23;7.88;;;;;;;3.12;78.11;99205.00;4159720;28;20256;-85
2023/01/29 08:04:25;;;;;;;9.23;7.13;;;;;;;3.15;78.31;99206.69;4161091;28;20253;-85
2023/01/29 08:06:28;;;;;;;19.40;9.93;;;;;;;3.14;77.80;99204.97;4157552;28;20210;-83
2023/01/29 08:08:31;;;;;;;31.63;14.80;;;;;;;3.15;77.76;99202.38;4152961;28;20268;-83
2023/01/29 08:10:35;;;;;;;55.60;24.75;;;;;;;3.17;77.44;99197.19;4175513;28;20206;-83
2023/01/29 08:12:38;;;;;;;41.40;20.58;;;;;;;3.22;77.70;99203.06;4135536;28;20227;-83
2023/01/29 08:14:41;;;;;;;20.00;11.32;;;;;;;3.23;76.69;99205.63;4150788;28;20230;-83
2023/01/29 08:16:45;;;;;;;10.95;7.70;;;;;;;3.25;76.54;99206.47;4168385;28;20565;-83
2023/01/29 08:18:48;;;;;;;9.52;7.47;;;;;;;3.26;76.84;99212.44;4158307;28;20203;-83
2023/01/29 08:20:51;;;;;;;9.45;7.72;;;;;;;3.25;76.55;99218.47;4154594;28;20628;-83
2023/01/29 08:22:59;;;;;;;8.45;7.03;;;;;;;3.26;75.85;99225.34;4155108;28;20237;-83
2023/01/29 08:25:02;;;;;;;7.70;6.28;;;;;;;3.26;76.40;99225.34;4134623;28;20206;-81
2023/01/29 08:27:24;;;;;;;7.30;6.07;;;;;;;3.24;75.13;99216.81;4171491;28;20216;-81
2023/01/29 08:29:28;;;;;;;7.57;6.78;;;;;;;3.21;74.38;99219.44;4147651;28;20199;-82
2023/01/29 08:31:32;;;;;;;8.50;6.85;;;;;;;3.16;73.61;99216.09;4155155;28;20221;-85
2023/01/29 08:33:35;;;;;;;7.30;6.35;;;;;;;3.16;73.98;99223.81;4155993;28;20210;-82
2023/01/29 08:35:41;;;;;;;6.75;6.05;;;;;;;3.16;74.35;99228.97;4172846;28;20202;-82
2023/01/29 08:37:44;;;;;;;7.30;5.97;;;;;;;3.21;74.64;99227.16;4161523;28;20257;-83
2023/01/29 08:39:47;;;;;;;7.60;6.15;;;;;;;3.25;74.90;99224.50;4157186;28;20218;-83
2023/01/29 08:41:50;;;;;;;7.82;6.30;;;;;;;3.27;74.38;99231.28;4171844;28;20213;-83
2023/01/29 08:43:56;;;;;;;10.70;7.55;;;;;;;3.28;73.58;99235.56;4138544;28;20247;-81
2023/01/29 08:45:59;;;;;;;7.40;6.63;;;;;;;3.30;74.00;99236.38;4168977;28;20211;-81
2023/01/29 08:48:02;;;;;;;12.63;8.10;;;;;;;3.33;74.04;99235.47;4168153;28;20225;-82
2023/01/29 08:50:06;;;;;;;16.90;11.55;;;;;;;3.38;73.64;99231.06;4150996;28;20210;-82
2023/01/29 08:52:09;;;;;;;11.43;9.77;;;;;;;3.44;73.61;99233.50;4176949;28;20198;-81
2023/01/29 08:54:12;;;;;;;9.27;7.43;;;;;;;3.51;74.10;99235.91;4154163;28;20207;-81
2023/01/29 08:56:16;;;;;;;6.72;6.00;;;;;;;3.54;73.27;99233.28;4173832;28;20586;-81
2023/01/29 08:58:19;;;;;;;5.97;5.28;;;;;;;3.59;73.54;99234.00;4156182;28;20498;-81
2023/01/29 09:00:24;;;;;;;6.18;5.55;;;;;;;3.64;72.57;99232.19;4157132;28;20231;-82
2023/01/29 09:02:27;;;;;;;6.97;5.50;;;;;;;3.69;72.79;99237.25;4168557;28;20205;-82
2023/01/29 09:04:30;;;;;;;5.70;4.68;;;;;;;3.73;72.01;99245.72;4172711;28;20290;-82
2023/01/29 09:06:33;;;;;;;7.40;6.60;;;;;;;3.77;72.04;99257.66;4163948;28;20261;-81
2023/01/29 09:08:36;;;;;;;6.60;5.90;;;;;;;3.80;71.93;99251.56;4175542;28;20198;-82
2023/01/29 09:10:39;;;;;;;7.15;5.75;;;;;;;3.84;71.65;99248.88;4154103;28;20211;-81
2023/01/29 09:12:42;;;;;;;6.05;5.45;;;;;;;3.88;71.52;99250.53;4171559;28;20272;-81
2023/01/29 09:14:45;;;;;;;5.85;5.25;;;;;;;3.92;71.70;99241.81;4154739;28;20241;-81
2023/01/29 09:16:50;;;;;;;6.72;4.95;;;;;;;3.84;70.92;99243.72;4166356;28;20209;-83
2023/01/29 09:18:53;;;;;;;5.40;4.63;;;;;;;3.81;70.02;99238.63;4155855;28;20665;-83
2023/01/29 09:20:57;;;;;;;5.72;4.80;;;;;;;3.86;70.26;99247.13;4151890;28;21451;-83
2023/01/29 09:23:04;;;;;;;7.03;5.28;;;;;;;3.85;71.38;99245.44;4152993;28;20214;-82
2023/01/29 09:25:08;;;;;;;5.63;5.10;;;;;;;3.83;70.74;99251.50;4172353;28;20207;-82
2023/01/29 09:27:11;;;;;;;6.40;5.40;;;;;;;3.85;70.60;99260.06;4153511;28;20210;-82
2023/01/29 09:29:14;;;;;;;5.15;4.65;;;;;;;3.85;71.56;99260.06;4141891;28;20270;-82
2023/01/29 09:31:17;;;;;;;5.05;4.53;;;;;;;3.82;69.77;99265.31;4140394;28;20199;-82
2023/01/29 09:33:23;;;;;;;5.93;5.05;;;;;;;3.67;68.74;99255.34;4160885;28;20214;-82
2023/01/29 09:35:26;;;;;;;8.73;6.57;;;;;;;3.60;68.82;99247.75;4175611;28;20268;-82
2023/01/29 09:37:29;;;;;;;7.65;6.63;;;;;;;3.58;70.59;99242.66;4157363;28;20630;-82
2023/01/29 09:39:32;;;;;;;6.63;5.75;;;;;;;3.63;71.43;99250.28;4157712;28;20635;-82
2023/01/29 09:41:48;;;;;;;6.57;5.90;;;;;;;3.65;70.80;99246.75;4153921;28;20730;-82
2023/01/29 09:43:54;;;;;;;6.57;5.40;;;;;;;3.64;70.41;99234.78;4159272;28;20654;-82
2023/01/29 09:46:01;;;;;;;5.85;5.20;;;;;;;3.61;71.68;99234.84;4143481;28;20691;-82
2023/01/29 09:48:05;;;;;;;7.65;5.65;;;;;;;3.60;70.21;99219.41;4176481;28;20207;-82
2023/01/29 09:50:15;;;;;;;8.93;5.75;;;;;;;3.57;70.57;99210.00;4174595;28;20198;-82
2023/01/29 09:52:23;;;;;;;7.15;6.05;;;;;;;3.61;70.23;99214.22;4144747;28;20203;-82
2023/01/29 09:54:29;;;;;;;6.22;5.63;;;;;;;3.65;70.74;99210.66;4158753;28;20305;-82
2023/01/29 09:56:33;;;;;;;7.80;6.18;;;;;;;3.70;69.94;99205.41;4154443;28;20215;-82
2023/01/29 09:58:37;;;;;;;7.18;6.45;;;;;;;3.78;71.85;99196.59;4153983;28;20606;-82
2023/01/29 10:00:44;;;;;;;7.22;5.70;;;;;;;3.74;69.76;99190.69;4157081;28;20638;-82
2023/01/29 10:02:58;;;;;;;5.72;5.05;;;;;;;3.72;70.99;99187.28;4156068;28;20226;-82
2023/01/29 10:05:25;;;;;;;9.40;5.60;;;;;;;3.74;71.38;99189.81;4141652;28;20214;-82
2023/01/29 10:07:47;;;;;;;6.50;5.80;;;;;;;3.77;70.44;99189.75;4175570;28;20206;-82
2023/01/29 10:10:04;;;;;;;6.63;5.93;;;;;;;3.88;70.58;99187.78;4156975;28;20203;-82
2023/01/29 10:12:20;;;;;;;5.93;5.30;;;;;;;3.97;70.96;99190.09;4157971;28;20226;-82
2023/01/29 10:14:30;;;;;;;6.30;5.65;;;;;;;4.00;71.06;99185.72;4134964;28;20715;-82
2023/01/29 10:16:44;;;;;;;6.75;5.78;;;;;;;4.04;71.27;99184.75;4172070;28;20252;-82
2023/01/29 10:19:25;;;;;;;7.07;5.88;;;;;;;4.10;69.52;99184.59;4140668;28;20208;-82
2023/01/29 10:21:42;;;;;;;7.95;6.53;;;;;;;4.14;71.42;99190.53;4125670;28;20223;-82
2023/01/29 10:23:49;;;;;;;7.45;6.45;;;;;;;4.22;70.52;99194.59;4174652;28;20202;-82
2023/01/29 10:25:53;;;;;;;10.05;7.28;;;;;;;4.34;70.92;99199.44;4141546;28;20220;-82
2023/01/29 10:27:58;;;;;;;9.73;7.10;;;;;;;4.45;71.24;99205.16;4177144;28;20195;-82
2023/01/29 10:30:03;;;;;;;6.88;6.10;;;;;;;4.51;70.12;99203.28;4151721;28;20569;-82